createdAt,value
2018-05-04T04:02:17.665Z,5.77
2018-05-04T04:04:43.523Z,5.50
2018-05-04T04:07:10.166Z,6.40
2018-05-04T04:09:36.939Z,6.27
2018-05-04T04:12:02.794Z,6.20
2018-05-04T04:14:28.690Z,5.90
2018-05-04T04:16:55.536Z,6.13
2018-05-04T04:19:21.663Z,5.77
2018-05-04T04:21:47.528Z,6.20
2018-05-04T04:24:13.908Z,6.47
2018-05-04T04:26:40.645Z,7.00
2018-05-04T04:29:06.557Z,6.77
2018-05-04T04:31:32.378Z,6.90
2018-05-04T04:33:58.231Z,5.50
2018-05-04T04:36:25.185Z,5.73
2018-05-04T04:38:51.864Z,6.00
2018-05-04T04:41:17.675Z,6.87
2018-05-04T04:43:43.529Z,6.93
2018-05-04T04:46:10.018Z,5.77
2018-05-04T04:48:36.546Z,6.00
2018-05-04T04:51:02.401Z,6.03
2018-05-04T04:53:28.264Z,6.30
2018-05-04T04:55:54.086Z,6.20
2018-05-04T04:58:19.960Z,5.60
2018-05-04T05:00:45.793Z,6.43
2018-05-04T05:03:11.618Z,6.43
2018-05-04T05:05:37.489Z,6.17
2018-05-04T05:08:03.952Z,6.57
2018-05-04T05:10:30.692Z,6.97
2018-05-04T05:12:56.547Z,5.10
2018-05-04T05:15:22.385Z,6.47
2018-05-04T05:17:48.201Z,6.23
2018-05-04T05:20:14.742Z,5.83
2018-05-04T05:22:40.580Z,5.07
2018-05-04T05:25:06.440Z,5.50
2018-05-04T05:27:33.053Z,5.47
2018-05-04T05:29:59.777Z,5.50
2018-05-04T05:32:25.635Z,5.10
2018-05-04T05:34:53.924Z,5.80
2018-05-04T05:37:19.776Z,4.93
2018-05-04T05:39:47.778Z,5.30
2018-05-04T05:42:15.508Z,5.13
2018-05-04T05:44:42.245Z,5.33
2018-05-04T05:47:08.267Z,5.10
2018-05-04T05:49:34.810Z,5.37
2018-05-04T05:52:01.718Z,5.47
2018-05-04T05:54:27.571Z,6.00
2018-05-04T05:56:53.459Z,6.40
2018-05-04T05:59:19.284Z,5.27
2018-05-04T06:01:46.376Z,5.60
2018-05-04T06:04:12.211Z,5.30
2018-05-04T06:06:38.048Z,5.77
2018-05-04T06:09:04.716Z,5.60
2018-05-04T06:11:30.561Z,5.40
2018-05-04T06:13:57.411Z,5.93
2018-05-04T06:16:24.259Z,6.87
2018-05-04T06:18:52.842Z,6.80
2018-05-04T06:21:18.704Z,6.13
2018-05-04T06:23:45.745Z,5.70
2018-05-04T06:26:12.345Z,6.13
2018-05-04T06:28:38.202Z,5.30
2018-05-04T06:31:04.036Z,6.77
2018-05-04T06:33:29.884Z,6.80
2018-05-04T06:35:55.796Z,6.07
2018-05-04T06:38:22.161Z,7.20
2018-05-04T06:40:48.957Z,6.50
2018-05-04T06:43:14.795Z,7.10
2018-05-04T06:45:41.669Z,6.30
2018-05-04T06:48:08.531Z,5.80
2018-05-04T06:50:34.375Z,7.37
2018-05-04T06:53:00.637Z,6.80
2018-05-04T06:55:27.081Z,7.80
2018-05-04T06:57:52.927Z,8.20
2018-05-04T07:00:19.640Z,6.30
2018-05-04T07:02:45.458Z,7.40
2018-05-04T07:05:11.630Z,6.87
2018-05-04T07:07:37.432Z,6.13
2018-05-04T07:10:06.206Z,5.80
2018-05-04T07:12:32.677Z,5.70
2018-05-04T07:14:58.604Z,6.10
2018-05-04T07:17:24.401Z,5.70
2018-05-04T07:19:50.234Z,6.20
2018-05-04T07:22:17.062Z,5.80
2018-05-04T07:24:42.937Z,5.60
2018-05-04T07:27:08.785Z,5.60
2018-05-04T07:29:35.239Z,5.60
2018-05-04T07:32:01.110Z,6.23
2018-05-04T07:34:27.912Z,5.50
2018-05-04T07:36:55.580Z,5.53
2018-05-04T07:39:21.451Z,4.90
2018-05-04T07:41:47.327Z,6.20
2018-05-04T07:44:14.957Z,7.27
2018-05-04T07:52:22.013Z,5.97
2018-05-04T07:54:47.838Z,6.10
2018-05-04T07:57:13.581Z,6.93
2018-05-04T07:59:39.350Z,6.07
2018-05-04T08:02:05.145Z,6.10
2018-05-04T08:04:30.909Z,7.13
2018-05-04T08:06:56.681Z,7.23
2018-05-04T08:09:22.433Z,6.87
2018-05-04T08:11:48.233Z,6.57
2018-05-04T08:14:13.978Z,6.20
2018-05-04T08:16:39.749Z,6.50
2018-05-04T08:19:05.503Z,6.67
2018-05-04T08:21:31.317Z,6.70
2018-05-04T08:23:57.085Z,7.37
2018-05-04T08:26:22.858Z,6.77
2018-05-04T08:28:48.621Z,5.70
2018-05-04T08:31:14.406Z,6.87
2018-05-04T08:33:40.245Z,5.70
2018-05-04T08:36:05.955Z,5.83
2018-05-04T08:38:31.745Z,6.53
2018-05-04T08:40:57.554Z,6.40
2018-05-04T08:43:23.329Z,6.83
2018-05-04T08:45:49.090Z,6.50
2018-05-04T08:48:14.956Z,6.10
2018-05-04T08:50:40.639Z,6.23
2018-05-04T08:53:07.110Z,6.67
2018-05-04T08:55:32.878Z,6.20
2018-05-04T08:57:58.660Z,6.03
2018-05-04T09:00:24.421Z,6.70
2018-05-04T09:02:50.209Z,5.53
2018-05-04T09:05:16.036Z,6.13
2018-05-04T09:07:41.777Z,6.40
2018-05-04T09:10:07.553Z,5.80
2018-05-04T09:12:33.317Z,6.30
2018-05-04T09:14:59.090Z,6.10
2018-05-04T09:17:24.862Z,5.40
2018-05-04T09:19:50.664Z,5.37
2018-05-04T09:22:16.406Z,5.97
2018-05-04T09:24:42.170Z,5.97
2018-05-04T09:27:07.930Z,6.10
2018-05-04T09:29:33.697Z,5.93
2018-05-04T09:31:59.451Z,6.20
2018-05-04T09:34:25.207Z,5.90
2018-05-04T09:36:50.973Z,5.47
2018-05-04T09:39:16.743Z,5.83
2018-05-04T09:41:42.509Z,5.93
2018-05-04T09:44:08.265Z,6.00
2018-05-04T09:46:34.038Z,5.50
2018-05-04T09:48:59.832Z,5.00
2018-05-04T09:51:25.579Z,5.80
2018-05-04T09:53:51.341Z,5.23
2018-05-04T09:56:17.105Z,6.07
2018-05-04T09:58:42.913Z,5.50
2018-05-04T10:01:08.682Z,4.93
2018-05-04T10:03:34.495Z,5.70
2018-05-04T10:06:00.222Z,5.70
2018-05-04T10:08:25.981Z,4.40
2018-05-04T10:10:51.757Z,5.30
2018-05-04T10:13:17.525Z,4.50
2018-05-04T10:15:43.278Z,4.67
2018-05-04T10:18:09.042Z,5.20
2018-05-04T10:20:34.814Z,5.00
2018-05-04T10:23:00.585Z,4.10
2018-05-04T10:25:26.353Z,5.00
2018-05-04T10:27:52.138Z,4.30
2018-05-04T10:30:17.894Z,4.33
2018-05-04T10:32:43.697Z,4.50
2018-05-04T10:35:09.448Z,3.77
2018-05-04T10:37:35.230Z,3.50
2018-05-04T10:40:01.006Z,4.13
2018-05-04T10:42:26.781Z,4.20
2018-05-04T10:44:52.565Z,4.90
2018-05-04T10:47:18.349Z,4.47
2018-05-04T10:49:44.130Z,4.67
2018-05-04T10:52:09.912Z,3.60
2018-05-04T10:54:35.696Z,4.30
2018-05-04T10:57:01.498Z,3.50
2018-05-04T10:59:27.282Z,3.90
2018-05-04T11:01:53.053Z,4.37
2018-05-04T11:04:18.862Z,3.37
2018-05-04T11:06:44.624Z,3.57
2018-05-04T11:09:10.400Z,4.30
2018-05-04T11:11:36.167Z,3.93
2018-05-04T11:14:01.931Z,4.10
2018-05-04T11:16:28.069Z,4.50
2018-05-04T11:18:53.844Z,4.33
2018-05-04T11:21:19.607Z,4.43
2018-05-04T11:23:45.370Z,4.60
2018-05-04T11:26:11.134Z,3.83
2018-05-04T11:28:36.933Z,3.40
2018-05-04T11:31:02.714Z,4.00
2018-05-04T11:33:28.495Z,3.50
2018-05-04T11:35:54.265Z,4.07
2018-05-04T11:38:20.034Z,3.83
2018-05-04T11:40:45.809Z,3.23
2018-05-04T11:43:11.603Z,3.20
2018-05-04T11:45:37.385Z,4.50
2018-05-04T11:48:03.145Z,3.40
2018-05-04T11:50:28.926Z,3.67
2018-05-04T11:52:54.681Z,3.13
2018-05-04T11:55:20.484Z,3.27
2018-05-04T11:57:46.237Z,2.90
2018-05-04T12:00:12.029Z,3.40
2018-05-04T12:02:37.793Z,3.70
2018-05-04T12:05:03.582Z,3.00
2018-05-04T12:07:29.333Z,3.40
2018-05-04T12:09:55.130Z,3.23
2018-05-04T12:12:20.897Z,2.93
2018-05-04T12:14:46.656Z,3.13
2018-05-04T12:17:12.425Z,3.80
2018-05-04T12:19:38.202Z,3.07
2018-05-04T12:22:04.002Z,3.43
2018-05-04T12:24:29.769Z,3.47
2018-05-04T12:26:55.529Z,3.03
2018-05-04T12:29:21.298Z,3.70
2018-05-04T12:31:47.174Z,2.90
2018-05-04T12:34:12.846Z,3.67
2018-05-04T12:36:38.613Z,3.13
2018-05-04T12:39:04.405Z,3.30
2018-05-04T12:41:30.192Z,3.43
2018-05-04T12:43:55.977Z,3.10
2018-05-04T12:46:21.738Z,3.27
2018-05-04T12:48:47.526Z,4.03
2018-05-04T12:51:13.302Z,3.50
2018-05-04T12:53:39.096Z,3.70
2018-05-04T12:56:04.864Z,3.30
2018-05-04T12:58:30.642Z,3.37
2018-05-04T13:00:56.533Z,3.70
2018-05-04T13:03:22.317Z,3.50
2018-05-04T13:05:48.095Z,2.93
2018-05-04T13:08:13.902Z,3.53
2018-05-04T13:10:39.673Z,3.90
2018-05-04T13:13:05.434Z,3.70
2018-05-04T13:15:31.190Z,4.10
2018-05-04T13:17:57.194Z,2.60
2018-05-04T13:20:22.962Z,3.67
2018-05-04T13:22:48.726Z,3.20
2018-05-04T13:25:14.514Z,3.57
2018-05-04T13:27:40.510Z,3.47
2018-05-04T13:30:06.385Z,3.07
2018-05-04T13:32:32.198Z,2.70
2018-05-04T13:34:57.926Z,3.10
2018-05-04T13:37:23.701Z,2.80
2018-05-04T13:39:49.473Z,3.03
2018-05-04T13:42:15.250Z,2.90
2018-05-04T13:44:41.026Z,3.30
2018-05-04T13:47:06.811Z,2.70
2018-05-04T13:49:32.589Z,2.60
2018-05-04T13:51:58.371Z,2.70
2018-05-04T13:54:24.133Z,3.00
2018-05-04T13:56:49.897Z,2.90
2018-05-04T13:59:15.653Z,2.83
2018-05-04T14:01:41.490Z,2.20
2018-05-04T14:04:07.233Z,3.13
2018-05-04T14:06:33.017Z,2.70
2018-05-04T14:08:58.765Z,2.97
2018-05-04T14:11:24.530Z,3.00
2018-05-04T14:13:50.286Z,2.37
2018-05-04T14:16:16.049Z,2.50
2018-05-04T14:18:41.803Z,2.30
2018-05-04T14:21:07.562Z,2.53
2018-05-04T14:23:34.121Z,2.57
2018-05-04T14:25:59.908Z,2.60
2018-05-04T14:28:25.708Z,2.97
2018-05-04T14:30:51.468Z,3.07
2018-05-04T14:33:17.248Z,2.73
2018-05-04T14:35:43.005Z,2.90
2018-05-04T14:38:08.815Z,3.23
2018-05-04T14:40:34.590Z,3.20
2018-05-04T14:43:00.357Z,3.10
2018-05-04T14:45:26.133Z,3.40
2018-05-04T14:47:51.925Z,2.90
2018-05-04T14:50:17.688Z,2.90
2018-05-04T14:52:43.469Z,2.60
2018-05-04T14:55:09.273Z,2.73
2018-05-04T14:57:35.049Z,3.40
2018-05-04T15:00:00.829Z,3.30
2018-05-04T15:02:26.615Z,3.07
2018-05-04T15:04:52.385Z,3.00
2018-05-04T15:07:18.498Z,2.80
2018-05-04T15:09:46.546Z,3.23
2018-05-04T15:12:12.717Z,2.90
2018-05-04T15:14:41.761Z,3.90
2018-05-04T15:17:11.318Z,3.13
2018-05-04T15:19:37.869Z,3.17
2018-05-04T15:22:03.636Z,2.97
2018-05-04T15:24:29.414Z,3.10
2018-05-04T15:26:55.224Z,3.10
2018-05-04T15:29:21.005Z,3.43
2018-05-04T15:31:46.801Z,3.87
2018-05-04T15:34:12.585Z,3.23
2018-05-04T15:36:38.353Z,3.10
2018-05-04T15:39:04.182Z,3.30
2018-05-04T15:41:29.958Z,3.20
2018-05-04T15:43:57.057Z,4.13
2018-05-04T15:46:22.850Z,3.33
2018-05-04T15:48:55.074Z,2.93
2018-05-04T15:51:26.970Z,3.37
2018-05-04T15:53:52.757Z,3.40
2018-05-04T15:56:18.537Z,3.33
2018-05-04T15:59:02.671Z,2.80
2018-05-04T16:01:32.038Z,3.43
2018-05-04T16:04:04.597Z,3.40
2018-05-04T16:06:30.413Z,3.30
2018-05-04T16:11:27.222Z,3.40
2018-05-04T16:13:52.990Z,3.20
2018-05-04T16:16:18.886Z,3.10
2018-05-04T16:18:44.642Z,2.97
2018-05-04T16:21:10.419Z,3.13
2018-05-04T16:23:36.191Z,2.67
2018-05-04T16:26:01.975Z,3.20
2018-05-04T16:28:27.762Z,3.57
2018-05-04T16:30:53.525Z,3.30
2018-05-04T16:33:19.302Z,3.10
2018-05-04T16:35:45.085Z,3.13
2018-05-04T16:38:10.866Z,3.17
2018-05-04T16:40:36.639Z,3.00
2018-05-04T16:43:02.406Z,3.03
2018-05-04T16:45:28.173Z,3.10
2018-05-04T16:48:00.152Z,2.80
2018-05-04T16:50:25.942Z,3.33
2018-05-04T16:52:51.714Z,3.33
2018-05-04T16:55:17.470Z,3.00
2018-05-04T16:57:43.263Z,3.40
2018-05-04T17:00:11.549Z,2.60
2018-05-04T17:02:37.324Z,3.10
2018-05-04T17:05:03.119Z,3.43
2018-05-04T17:07:28.913Z,3.17
2018-05-04T17:09:54.713Z,2.93
2018-05-04T17:12:20.532Z,3.00
2018-05-04T17:14:46.322Z,3.00
2018-05-04T17:17:12.130Z,2.97
2018-05-04T17:19:37.927Z,2.77
2018-05-04T17:22:03.804Z,2.77
2018-05-04T17:24:29.550Z,3.03
2018-05-04T17:26:55.348Z,2.93
2018-05-04T17:29:21.141Z,2.63
2018-05-04T17:31:46.926Z,3.50
2018-05-04T17:34:12.733Z,3.27
2018-05-04T17:36:38.531Z,3.60
2018-05-04T17:39:04.345Z,3.00
2018-05-04T17:41:30.109Z,2.63
2018-05-04T17:43:55.886Z,2.73
2018-05-04T17:46:21.645Z,4.03
2018-05-04T17:48:47.440Z,2.80
2018-05-04T17:51:13.220Z,3.47
2018-05-04T17:53:39.001Z,3.03
2018-05-04T17:56:04.757Z,2.80
2018-05-04T17:58:30.539Z,3.20
2018-05-04T18:00:56.414Z,3.30
2018-05-04T18:03:22.169Z,3.00
2018-05-04T18:05:47.971Z,3.90
2018-05-04T18:08:13.747Z,3.70
2018-05-04T18:10:39.522Z,4.10
2018-05-04T18:13:05.294Z,4.23
2018-05-04T18:15:31.062Z,3.80
2018-05-04T18:17:56.817Z,4.30
2018-05-04T18:20:22.598Z,4.30
2018-05-04T18:22:48.365Z,3.60
2018-05-04T18:25:14.133Z,3.77
2018-05-04T18:27:39.923Z,4.17
2018-05-04T18:30:05.734Z,4.03
2018-05-04T18:32:31.494Z,4.30
2018-05-04T18:34:57.274Z,4.27
2018-05-04T18:37:23.057Z,4.57
2018-05-04T18:39:48.845Z,3.70
2018-05-04T18:42:14.672Z,3.60
2018-05-04T18:44:40.463Z,3.60
2018-05-04T18:47:06.246Z,4.07
2018-05-04T18:49:32.021Z,3.80
2018-05-04T18:51:57.834Z,4.23
2018-05-04T18:54:23.641Z,3.97
2018-05-04T18:56:49.394Z,3.73
2018-05-04T18:59:15.161Z,3.80
2018-05-04T19:01:40.981Z,4.70
2018-05-04T19:04:06.761Z,4.00
2018-05-04T19:06:32.549Z,4.70
2018-05-04T19:08:58.327Z,4.30
2018-05-04T19:11:24.114Z,4.70
2018-05-04T19:13:49.974Z,4.60
2018-05-04T19:16:15.755Z,4.07
2018-05-04T19:18:41.535Z,3.90
2018-05-04T19:21:07.325Z,4.40
2018-05-04T19:23:33.150Z,3.90
2018-05-04T19:25:58.931Z,3.70
2018-05-04T19:28:24.723Z,3.83
2018-05-04T19:30:50.486Z,4.00
2018-05-04T19:33:16.261Z,4.90
2018-05-04T19:35:42.054Z,3.70
2018-05-04T19:38:07.837Z,3.80
2018-05-04T19:40:33.614Z,3.77
2018-05-04T19:42:59.417Z,4.23
2018-05-04T19:45:25.189Z,4.00
2018-05-04T19:47:51.001Z,4.50
2018-05-04T19:50:16.765Z,3.97
2018-05-04T19:52:42.567Z,3.67
2018-05-04T19:55:08.329Z,4.10
2018-05-04T19:57:34.105Z,4.37
2018-05-04T19:59:59.926Z,3.70
2018-05-04T20:02:25.709Z,3.70
2018-05-04T20:04:51.503Z,3.87
2018-05-04T20:07:17.281Z,3.83
2018-05-04T20:09:43.057Z,3.47
2018-05-04T20:12:08.822Z,3.60
2018-05-04T20:14:34.641Z,4.30
2018-05-04T20:17:00.440Z,3.80
2018-05-04T20:19:26.234Z,4.10
2018-05-04T20:21:52.176Z,3.90
2018-05-04T20:24:17.938Z,3.20
2018-05-04T20:26:43.724Z,3.97
2018-05-04T20:29:09.512Z,4.03
2018-05-04T20:31:35.299Z,4.00
2018-05-04T20:34:01.087Z,3.13
2018-05-04T20:36:26.875Z,3.50
2018-05-04T20:38:52.658Z,3.40
2018-05-04T20:41:18.565Z,4.03
2018-05-04T20:43:44.571Z,3.37
2018-05-04T20:46:10.450Z,3.27
2018-05-04T20:48:36.266Z,4.00
2018-05-04T20:51:02.042Z,3.63
2018-05-04T20:53:27.830Z,3.87
2018-05-04T20:55:53.611Z,3.50
2018-05-04T20:58:19.392Z,3.83
2018-05-04T21:00:45.194Z,3.50
2018-05-04T21:03:10.954Z,3.60
2018-05-04T21:05:36.719Z,3.50
2018-05-04T21:08:02.615Z,3.73
2018-05-04T21:10:28.405Z,3.80
2018-05-04T21:12:54.178Z,3.53
2018-05-04T21:15:19.954Z,3.60
2018-05-04T21:17:45.737Z,3.70
2018-05-04T21:20:11.528Z,3.50
2018-05-04T21:22:37.298Z,3.30
2018-05-04T21:25:03.074Z,3.67
2018-05-04T21:27:28.874Z,4.20
2018-05-04T21:29:54.711Z,4.10
2018-05-04T21:32:20.499Z,4.27
2018-05-04T21:34:46.262Z,4.13
2018-05-04T21:37:12.030Z,3.67
2018-05-04T21:39:37.821Z,3.90
2018-05-04T21:42:03.638Z,4.13
2018-05-04T21:44:29.437Z,3.40
2018-05-04T21:46:55.198Z,3.20
2018-05-04T21:49:20.987Z,3.20
2018-05-04T21:51:46.870Z,3.50
2018-05-04T21:54:13.106Z,3.80
2018-05-04T21:56:38.904Z,3.83
2018-05-04T21:59:04.806Z,3.80
2018-05-04T22:01:30.599Z,3.40
2018-05-04T22:03:56.385Z,3.50
2018-05-04T22:06:23.028Z,3.43
2018-05-04T22:08:48.826Z,4.10
2018-05-04T22:24:05.821Z,4.43
2018-05-04T22:26:31.641Z,4.30
2018-05-04T22:28:57.357Z,5.40
2018-05-04T22:31:23.125Z,4.93
2018-05-04T22:33:48.886Z,4.13
2018-05-04T22:36:14.670Z,3.97
2018-05-04T22:38:40.453Z,4.10
2018-05-04T22:41:06.217Z,3.60
2018-05-04T22:43:31.980Z,3.77
2018-05-04T22:45:57.750Z,3.97
2018-05-04T22:51:04.713Z,4.10
2018-05-04T22:53:30.481Z,3.57
2018-05-04T22:55:56.270Z,3.60
2018-05-04T22:58:22.034Z,3.90
2018-05-04T23:00:47.806Z,3.77
2018-05-04T23:03:13.578Z,4.30
2018-05-04T23:05:39.349Z,3.90
2018-05-04T23:08:05.113Z,4.27
2018-05-04T23:10:42.809Z,4.13
2018-05-04T23:13:08.582Z,3.93
2018-05-04T23:15:34.357Z,4.40
2018-05-04T23:18:00.113Z,4.27
2018-05-04T23:20:25.882Z,3.90
2018-05-04T23:22:51.654Z,3.77
2018-05-04T23:25:17.410Z,4.47
2018-05-04T23:27:43.230Z,4.47
2018-05-04T23:30:08.981Z,4.33
2018-05-04T23:32:34.765Z,4.20
2018-05-04T23:35:00.517Z,3.90
2018-05-04T23:37:26.293Z,3.97
2018-05-04T23:39:52.053Z,4.00
2018-05-04T23:42:17.834Z,4.67
2018-05-04T23:44:43.603Z,4.00
2018-05-04T23:47:09.389Z,3.70
2018-05-04T23:49:35.141Z,4.87
2018-05-04T23:52:00.904Z,4.83
2018-05-04T23:54:26.765Z,4.40
2018-05-04T23:56:52.472Z,4.47
2018-05-04T23:59:18.234Z,4.10
